Impacts TAF Board
For situational awareness. Not to be used for flight planning purposes.
IDs:

KDEN - Denver Intl, CO, US

Issued at 0352 UTC 21 Sep 2018
Updated at 0449 UTC 21 Sep 2018
Potential Impact None Slight Moderate High
Time<<22/05Z 22/06Z 22/07Z 22/08Z 22/09Z 22/10Z 22/11Z 22/12Z 22/13Z 22/14Z 22/15Z 22/16Z 22/17Z
Type PRVL
VIS >6
CIG --
Cover SKC
FltCat VFR
WX --
WDir 150
WSpd 14
WGst 21
Raw TAF
KDEN 210352Z 2104/2206 06013KT P6SM SKC
  FM210600 08008KT P6SM FEW008
  FM210900 VRB04KT P6SM SKC
  FM211200 15006KT P6SM SKC
  FM211700 15014G21KT P6SM SKC


METAR Board
Radar Display
Forecast Discussion
For situational awareness. Not to be used for flight planning purposes.